sensor_id;sensor_type;location;lat;lon;timestamp;pressure;altitude;pressure_sealevel;temperature;humidity
31346;BME280;21711;49.708;18.568;2023-05-17T00:02:07;96972.00;;;12.94;100.00
31346;BME280;21711;49.708;18.568;2023-05-17T00:04:34;96977.91;;;13.05;100.00
31346;BME280;21711;49.708;18.568;2023-05-17T00:07:02;96985.16;;;12.99;100.00
31346;BME280;21711;49.708;18.568;2023-05-17T00:09:29;96985.97;;;13.00;100.00
31346;BME280;21711;49.708;18.568;2023-05-17T00:11:57;96983.97;;;13.06;100.00
31346;BME280;21711;49.708;18.568;2023-05-17T00:14:24;96983.09;;;13.24;100.00
31346;BME280;21711;49.708;18.568;2023-05-17T00:16:51;96967.84;;;13.16;100.00
31346;BME280;21711;49.708;18.568;2023-05-17T00:19:19;96968.66;;;13.02;100.00
31346;BME280;21711;49.708;18.568;2023-05-17T00:21:47;96968.44;;;12.85;100.00
31346;BME280;21711;49.708;18.568;2023-05-17T00:24:14;96970.59;;;12.83;100.00
31346;BME280;21711;49.708;18.568;2023-05-17T00:26:42;96982.50;;;12.85;100.00
31346;BME280;21711;49.708;18.568;2023-05-17T00:29:09;96981.03;;;12.79;100.00
31346;BME280;21711;49.708;18.568;2023-05-17T00:31:36;96987.69;;;12.76;100.00
31346;BME280;21711;49.708;18.568;2023-05-17T00:34:04;96993.19;;;12.80;100.00
31346;BME280;21711;49.708;18.568;2023-05-17T00:36:31;96990.28;;;12.96;100.00
31346;BME280;21711;49.708;18.568;2023-05-17T00:39:00;96983.19;;;12.91;100.00
31346;BME280;21711;49.708;18.568;2023-05-17T00:41:27;96967.56;;;12.75;100.00
31346;BME280;21711;49.708;18.568;2023-05-17T00:43:54;96957.81;;;12.71;100.00
31346;BME280;21711;49.708;18.568;2023-05-17T00:46:22;96967.53;;;12.61;100.00
31346;BME280;21711;49.708;18.568;2023-05-17T00:48:49;96959.19;;;12.68;100.00
31346;BME280;21711;49.708;18.568;2023-05-17T00:51:18;96959.78;;;12.65;100.00
31346;BME280;21711;49.708;18.568;2023-05-17T00:53:47;96970.41;;;12.79;100.00
31346;BME280;21711;49.708;18.568;2023-05-17T00:56:14;96973.56;;;12.81;100.00
31346;BME280;21711;49.708;18.568;2023-05-17T00:58:42;96971.69;;;12.82;100.00
31346;BME280;21711;49.708;18.568;2023-05-17T01:01:09;96974.84;;;12.84;100.00
31346;BME280;21711;49.708;18.568;2023-05-17T01:03:37;96976.09;;;12.72;100.00
31346;BME280;21711;49.708;18.568;2023-05-17T01:06:05;96970.81;;;12.86;100.00
31346;BME280;21711;49.708;18.568;2023-05-17T01:08:34;96975.81;;;12.74;100.00
31346;BME280;21711;49.708;18.568;2023-05-17T01:14:22;96973.97;;;12.74;100.00
31346;BME280;21711;49.708;18.568;2023-05-17T01:16:59;96974.53;;;12.85;100.00
31346;BME280;21711;49.708;18.568;2023-05-17T01:20:40;96986.53;;;12.97;100.00
31346;BME280;21711;49.708;18.568;2023-05-17T01:26:33;96980.31;;;12.73;100.00
31346;BME280;21711;49.708;18.568;2023-05-17T01:28:56;96983.38;;;12.81;100.00
31346;BME280;21711;49.708;18.568;2023-05-17T01:31:26;96980.91;;;12.70;100.00
31346;BME280;21711;49.708;18.568;2023-05-17T01:33:55;96977.28;;;12.66;100.00
31346;BME280;21711;49.708;18.568;2023-05-17T01:36:27;96991.31;;;12.53;100.00
31346;BME280;21711;49.708;18.568;2023-05-17T01:38:54;96981.88;;;12.60;100.00
31346;BME280;21711;49.708;18.568;2023-05-17T01:41:28;96988.19;;;12.65;100.00
31346;BME280;21711;49.708;18.568;2023-05-17T01:44:32;96992.00;;;12.72;100.00
31346;BME280;21711;49.708;18.568;2023-05-17T01:50:09;97014.78;;;12.59;100.00
31346;BME280;21711;49.708;18.568;2023-05-17T01:52:52;97014.78;;;12.59;100.00
31346;BME280;21711;49.708;18.568;2023-05-17T01:55:51;97020.75;;;12.51;100.00
31346;BME280;21711;49.708;18.568;2023-05-17T01:58:25;97016.19;;;12.38;100.00
31346;BME280;21711;49.708;18.568;2023-05-17T02:00:55;97017.63;;;12.49;100.00
31346;BME280;21711;49.708;18.568;2023-05-17T02:03:27;97014.06;;;12.40;100.00
31346;BME280;21711;49.708;18.568;2023-05-17T02:05:55;97006.31;;;12.43;100.00
31346;BME280;21711;49.708;18.568;2023-05-17T02:08:22;97003.16;;;12.41;100.00
31346;BME280;21711;49.708;18.568;2023-05-17T02:10:50;97003.94;;;12.42;100.00
31346;BME280;21711;49.708;18.568;2023-05-17T02:13:17;97009.84;;;12.39;100.00
31346;BME280;21711;49.708;18.568;2023-05-17T02:15:45;97011.28;;;12.31;100.00
31346;BME280;21711;49.708;18.568;2023-05-17T02:18:13;97013.78;;;12.41;100.00
31346;BME280;21711;49.708;18.568;2023-05-17T02:20:40;97009.91;;;12.67;100.00
31346;BME280;21711;49.708;18.568;2023-05-17T02:23:08;97008.69;;;12.59;100.00
31346;BME280;21711;49.708;18.568;2023-05-17T02:25:35;97011.09;;;12.74;100.00
31346;BME280;21711;49.708;18.568;2023-05-17T02:28:03;97022.19;;;12.62;100.00
31346;BME280;21711;49.708;18.568;2023-05-17T02:30:30;97026.19;;;12.60;100.00
31346;BME280;21711;49.708;18.568;2023-05-17T02:32:58;97021.66;;;12.60;100.00
31346;BME280;21711;49.708;18.568;2023-05-17T02:35:25;97015.78;;;12.63;100.00
31346;BME280;21711;49.708;18.568;2023-05-17T02:37:53;97019.72;;;12.66;100.00
31346;BME280;21711;49.708;18.568;2023-05-17T02:40:20;97023.28;;;12.75;100.00
31346;BME280;21711;49.708;18.568;2023-05-17T02:42:48;97025.66;;;12.77;100.00
31346;BME280;21711;49.708;18.568;2023-05-17T02:45:15;97025.03;;;12.80;100.00
31346;BME280;21711;49.708;18.568;2023-05-17T02:47:42;97021.09;;;12.63;100.00
31346;BME280;21711;49.708;18.568;2023-05-17T02:50:10;97022.47;;;12.61;100.00
31346;BME280;21711;49.708;18.568;2023-05-17T02:52:38;97023.84;;;12.58;100.00
31346;BME280;21711;49.708;18.568;2023-05-17T02:55:06;97021.38;;;12.62;100.00
31346;BME280;21711;49.708;18.568;2023-05-17T02:57:34;97029.28;;;12.81;100.00
31346;BME280;21711;49.708;18.568;2023-05-17T03:00:02;97032.63;;;12.87;100.00
31346;BME280;21711;49.708;18.568;2023-05-17T03:02:29;97024.56;;;12.78;100.00
31346;BME280;21711;49.708;18.568;2023-05-17T03:04:58;97022.09;;;12.68;100.00
31346;BME280;21711;49.708;18.568;2023-05-17T03:07:25;97018.72;;;12.62;100.00
31346;BME280;21711;49.708;18.568;2023-05-17T03:09:53;97028.63;;;12.56;100.00
31346;BME280;21711;49.708;18.568;2023-05-17T03:12:22;97024.03;;;12.29;100.00
31346;BME280;21711;49.708;18.568;2023-05-17T03:14:49;97030.47;;;12.42;100.00
31346;BME280;21711;49.708;18.568;2023-05-17T03:17:19;97037.13;;;12.39;100.00
31346;BME280;21711;49.708;18.568;2023-05-17T03:19:46;97037.19;;;12.53;100.00
31346;BME280;21711;49.708;18.568;2023-05-17T03:22:14;97041.78;;;12.47;100.00
31346;BME280;21711;49.708;18.568;2023-05-17T03:24:41;97043.84;;;12.51;100.00
31346;BME280;21711;49.708;18.568;2023-05-17T03:27:09;97042.03;;;12.32;100.00
31346;BME280;21711;49.708;18.568;2023-05-17T03:29:36;97047.16;;;12.42;100.00
31346;BME280;21711;49.708;18.568;2023-05-17T03:32:05;97058.47;;;12.15;100.00
31346;BME280;21711;49.708;18.568;2023-05-17T03:34:32;97066.75;;;12.08;100.00
31346;BME280;21711;49.708;18.568;2023-05-17T03:37:00;97073.91;;;12.27;100.00
31346;BME280;21711;49.708;18.568;2023-05-17T03:39:27;97075.28;;;12.24;100.00
31346;BME280;21711;49.708;18.568;2023-05-17T03:41:55;97075.50;;;12.28;100.00
31346;BME280;21711;49.708;18.568;2023-05-17T03:44:23;97076.63;;;12.41;100.00
31346;BME280;21711;49.708;18.568;2023-05-17T03:46:52;97077.63;;;12.45;100.00
31346;BME280;21711;49.708;18.568;2023-05-17T03:49:21;97078.66;;;12.10;100.00
31346;BME280;21711;49.708;18.568;2023-05-17T03:51:49;97073.50;;;11.95;100.00
31346;BME280;21711;49.708;18.568;2023-05-17T03:54:17;97074.03;;;11.97;100.00
31346;BME280;21711;49.708;18.568;2023-05-17T03:56:45;97084.06;;;12.00;100.00
31346;BME280;21711;49.708;18.568;2023-05-17T03:59:15;97083.75;;;11.82;100.00
31346;BME280;21711;49.708;18.568;2023-05-17T04:01:43;97085.41;;;11.78;100.00
31346;BME280;21711;49.708;18.568;2023-05-17T04:04:13;97090.56;;;11.69;100.00
31346;BME280;21711;49.708;18.568;2023-05-17T04:06:40;97093.97;;;11.70;100.00
31346;BME280;21711;49.708;18.568;2023-05-17T04:09:08;97109.44;;;11.82;100.00
31346;BME280;21711;49.708;18.568;2023-05-17T04:11:38;97109.38;;;11.87;100.00
31346;BME280;21711;49.708;18.568;2023-05-17T04:14:07;97111.97;;;11.73;100.00
31346;BME280;21711;49.708;18.568;2023-05-17T04:16:34;97114.25;;;11.80;100.00
31346;BME280;21711;49.708;18.568;2023-05-17T04:19:03;97126.16;;;11.82;100.00
31346;BME280;21711;49.708;18.568;2023-05-17T04:21:31;97130.88;;;11.86;100.00
31346;BME280;21711;49.708;18.568;2023-05-17T04:23:58;97128.88;;;11.77;100.00
31346;BME280;21711;49.708;18.568;2023-05-17T04:26:26;97136.69;;;11.88;100.00
31346;BME280;21711;49.708;18.568;2023-05-17T04:28:53;97131.66;;;11.62;100.00
31346;BME280;21711;49.708;18.568;2023-05-17T04:31:21;97135.00;;;11.48;100.00
31346;BME280;21711;49.708;18.568;2023-05-17T04:33:50;97151.41;;;11.50;100.00
31346;BME280;21711;49.708;18.568;2023-05-17T04:36:17;97153.69;;;11.32;100.00
31346;BME280;21711;49.708;18.568;2023-05-17T04:38:45;97150.97;;;11.13;100.00
31346;BME280;21711;49.708;18.568;2023-05-17T04:41:16;97156.38;;;11.27;100.00
31346;BME280;21711;49.708;18.568;2023-05-17T04:43:44;97152.75;;;11.18;100.00
31346;BME280;21711;49.708;18.568;2023-05-17T04:46:19;97147.66;;;11.27;100.00
31346;BME280;21711;49.708;18.568;2023-05-17T04:48:46;97145.69;;;11.38;100.00
31346;BME280;21711;49.708;18.568;2023-05-17T04:51:14;97139.41;;;11.04;100.00
31346;BME280;21711;49.708;18.568;2023-05-17T04:53:41;97156.34;;;11.03;100.00
31346;BME280;21711;49.708;18.568;2023-05-17T04:56:14;97162.00;;;10.91;100.00
31346;BME280;21711;49.708;18.568;2023-05-17T04:58:42;97174.69;;;10.89;100.00
31346;BME280;21711;49.708;18.568;2023-05-17T05:01:09;97171.94;;;10.70;100.00
31346;BME280;21711;49.708;18.568;2023-05-17T05:03:38;97172.41;;;10.77;100.00
31346;BME280;21711;49.708;18.568;2023-05-17T05:06:08;97188.47;;;10.91;100.00
31346;BME280;21711;49.708;18.568;2023-05-17T05:08:35;97185.44;;;10.68;100.00
31346;BME280;21711;49.708;18.568;2023-05-17T05:11:06;97199.03;;;10.91;100.00
31346;BME280;21711;49.708;18.568;2023-05-17T05:13:33;97206.06;;;11.06;100.00
31346;BME280;21711;49.708;18.568;2023-05-17T05:16:01;97201.50;;;10.77;100.00
31346;BME280;21711;49.708;18.568;2023-05-17T05:18:28;97205.78;;;10.68;100.00
31346;BME280;21711;49.708;18.568;2023-05-17T05:20:56;97213.50;;;10.64;100.00
31346;BME280;21711;49.708;18.568;2023-05-17T05:23:24;97222.16;;;10.75;100.00
31346;BME280;21711;49.708;18.568;2023-05-17T05:25:51;97229.00;;;10.81;100.00
31346;BME280;21711;49.708;18.568;2023-05-17T05:28:19;97233.50;;;10.75;100.00
31346;BME280;21711;49.708;18.568;2023-05-17T05:30:47;97239.56;;;10.81;100.00
31346;BME280;21711;49.708;18.568;2023-05-17T05:33:14;97241.50;;;10.65;100.00
31346;BME280;21711;49.708;18.568;2023-05-17T05:35:42;97246.41;;;10.87;100.00
31346;BME280;21711;49.708;18.568;2023-05-17T05:38:10;97249.25;;;10.51;100.00
31346;BME280;21711;49.708;18.568;2023-05-17T05:40:38;97240.44;;;10.66;100.00
31346;BME280;21711;49.708;18.568;2023-05-17T05:43:05;97236.06;;;10.46;100.00
31346;BME280;21711;49.708;18.568;2023-05-17T05:45:33;97246.69;;;10.81;100.00
31346;BME280;21711;49.708;18.568;2023-05-17T05:48:02;97232.03;;;10.59;100.00
31346;BME280;21711;49.708;18.568;2023-05-17T05:50:33;97243.63;;;10.68;100.00
31346;BME280;21711;49.708;18.568;2023-05-17T05:53:07;97249.03;;;10.32;100.00
31346;BME280;21711;49.708;18.568;2023-05-17T05:55:49;97251.41;;;10.44;100.00
31346;BME280;21711;49.708;18.568;2023-05-17T05:58:18;97261.44;;;10.47;100.00
31346;BME280;21711;49.708;18.568;2023-05-17T06:00:46;97264.06;;;10.52;100.00
31346;BME280;21711;49.708;18.568;2023-05-17T06:03:14;97269.38;;;10.47;100.00
31346;BME280;21711;49.708;18.568;2023-05-17T06:05:41;97275.88;;;10.70;100.00
31346;BME280;21711;49.708;18.568;2023-05-17T06:08:09;97268.06;;;10.29;100.00
31346;BME280;21711;49.708;18.568;2023-05-17T06:10:36;97268.88;;;10.29;100.00
31346;BME280;21711;49.708;18.568;2023-05-17T06:13:04;97272.56;;;10.33;100.00
31346;BME280;21711;49.708;18.568;2023-05-17T06:15:31;97263.28;;;10.41;100.00
31346;BME280;21711;49.708;18.568;2023-05-17T06:17:58;97272.78;;;10.47;100.00
31346;BME280;21711;49.708;18.568;2023-05-17T06:20:26;97277.00;;;10.54;100.00
31346;BME280;21711;49.708;18.568;2023-05-17T06:22:54;97284.38;;;10.57;100.00
31346;BME280;21711;49.708;18.568;2023-05-17T06:25:21;97280.66;;;10.68;100.00
31346;BME280;21711;49.708;18.568;2023-05-17T06:27:49;97284.91;;;10.64;100.00
31346;BME280;21711;49.708;18.568;2023-05-17T06:30:16;97286.19;;;10.67;100.00
31346;BME280;21711;49.708;18.568;2023-05-17T06:32:44;97290.66;;;10.71;100.00
31346;BME280;21711;49.708;18.568;2023-05-17T06:35:11;97286.28;;;10.51;100.00
31346;BME280;21711;49.708;18.568;2023-05-17T06:37:38;97282.81;;;10.56;100.00
31346;BME280;21711;49.708;18.568;2023-05-17T06:40:07;97295.53;;;10.48;100.00
31346;BME280;21711;49.708;18.568;2023-05-17T06:42:43;97298.63;;;10.66;100.00
31346;BME280;21711;49.708;18.568;2023-05-17T06:45:11;97301.81;;;10.63;100.00
31346;BME280;21711;49.708;18.568;2023-05-17T06:47:39;97310.78;;;10.72;100.00
31346;BME280;21711;49.708;18.568;2023-05-17T06:50:07;97314.50;;;10.66;100.00
31346;BME280;21711;49.708;18.568;2023-05-17T06:52:35;97316.94;;;10.52;100.00
31346;BME280;21711;49.708;18.568;2023-05-17T06:55:03;97325.38;;;10.54;100.00
31346;BME280;21711;49.708;18.568;2023-05-17T06:57:35;97325.38;;;10.54;100.00
31346;BME280;21711;49.708;18.568;2023-05-17T07:00:04;97333.31;;;10.54;100.00
31346;BME280;21711;49.708;18.568;2023-05-17T07:02:37;97330.41;;;10.56;100.00
31346;BME280;21711;49.708;18.568;2023-05-17T07:05:05;97332.97;;;10.76;100.00
31346;BME280;21711;49.708;18.568;2023-05-17T07:07:33;97320.03;;;10.75;100.00
31346;BME280;21711;49.708;18.568;2023-05-17T07:10:01;97329.34;;;10.57;100.00
31346;BME280;21711;49.708;18.568;2023-05-17T07:12:28;97332.72;;;10.68;100.00
31346;BME280;21711;49.708;18.568;2023-05-17T07:14:56;97333.03;;;10.61;100.00
31346;BME280;21711;49.708;18.568;2023-05-17T07:17:23;97336.22;;;10.63;100.00
31346;BME280;21711;49.708;18.568;2023-05-17T07:19:50;97337.00;;;10.58;100.00
31346;BME280;21711;49.708;18.568;2023-05-17T07:22:18;97347.31;;;10.60;100.00
31346;BME280;21711;49.708;18.568;2023-05-17T07:24:46;97359.19;;;10.68;100.00
31346;BME280;21711;49.708;18.568;2023-05-17T07:27:16;97364.09;;;10.90;100.00
31346;BME280;21711;49.708;18.568;2023-05-17T07:29:43;97375.25;;;10.87;100.00
31346;BME280;21711;49.708;18.568;2023-05-17T07:32:11;97374.19;;;10.88;100.00
31346;BME280;21711;49.708;18.568;2023-05-17T07:34:38;97376.56;;;10.89;100.00
31346;BME280;21711;49.708;18.568;2023-05-17T07:37:06;97378.75;;;10.72;100.00
31346;BME280;21711;49.708;18.568;2023-05-17T07:39:33;97382.19;;;10.72;100.00
31346;BME280;21711;49.708;18.568;2023-05-17T07:42:00;97373.94;;;10.84;100.00
31346;BME280;21711;49.708;18.568;2023-05-17T07:44:31;97379.97;;;10.90;100.00
31346;BME280;21711;49.708;18.568;2023-05-17T07:46:58;97383.69;;;10.94;100.00
31346;BME280;21711;49.708;18.568;2023-05-17T07:49:26;97389.09;;;10.52;100.00
31346;BME280;21711;49.708;18.568;2023-05-17T07:51:53;97388.75;;;10.85;100.00
31346;BME280;21711;49.708;18.568;2023-05-17T07:54:23;97390.38;;;10.71;100.00
31346;BME280;21711;49.708;18.568;2023-05-17T07:56:51;97399.84;;;10.87;100.00
31346;BME280;21711;49.708;18.568;2023-05-17T07:59:21;97403.03;;;10.89;100.00
31346;BME280;21711;49.708;18.568;2023-05-17T08:01:49;97402.97;;;11.00;100.00
31346;BME280;21711;49.708;18.568;2023-05-17T08:04:17;97405.94;;;10.83;100.00
31346;BME280;21711;49.708;18.568;2023-05-17T08:06:47;97405.41;;;10.91;100.00
31346;BME280;21711;49.708;18.568;2023-05-17T08:09:16;97400.03;;;11.07;100.00
31346;BME280;21711;49.708;18.568;2023-05-17T08:11:44;97401.41;;;10.94;100.00
31346;BME280;21711;49.708;18.568;2023-05-17T08:14:16;97391.06;;;10.97;100.00
31346;BME280;21711;49.708;18.568;2023-05-17T08:16:44;97398.69;;;11.09;100.00
31346;BME280;21711;49.708;18.568;2023-05-17T08:19:13;97405.38;;;10.96;100.00
31346;BME280;21711;49.708;18.568;2023-05-17T08:21:41;97403.78;;;10.90;100.00
31346;BME280;21711;49.708;18.568;2023-05-17T08:24:11;97409.66;;;10.82;100.00
31346;BME280;21711;49.708;18.568;2023-05-17T08:26:39;97411.69;;;11.05;100.00
31346;BME280;21711;49.708;18.568;2023-05-17T08:29:06;97412.66;;;11.25;100.00
31346;BME280;21711;49.708;18.568;2023-05-17T08:31:34;97413.84;;;10.93;100.00
31346;BME280;21711;49.708;18.568;2023-05-17T08:34:01;97413.47;;;11.15;100.00
31346;BME280;21711;49.708;18.568;2023-05-17T08:36:29;97419.13;;;10.98;100.00
31346;BME280;21711;49.708;18.568;2023-05-17T08:38:57;97413.38;;;10.75;100.00
31346;BME280;21711;49.708;18.568;2023-05-17T08:41:24;97419.72;;;10.79;100.00
31346;BME280;21711;49.708;18.568;2023-05-17T08:43:52;97427.84;;;11.04;100.00
31346;BME280;21711;49.708;18.568;2023-05-17T08:46:20;97428.41;;;10.90;100.00
31346;BME280;21711;49.708;18.568;2023-05-17T08:48:50;97433.91;;;11.10;100.00
31346;BME280;21711;49.708;18.568;2023-05-17T08:51:18;97431.84;;;10.91;100.00
31346;BME280;21711;49.708;18.568;2023-05-17T08:53:47;97428.97;;;10.82;100.00
31346;BME280;21711;49.708;18.568;2023-05-17T08:56:16;97431.31;;;10.89;100.00
31346;BME280;21711;49.708;18.568;2023-05-17T08:58:47;97445.06;;;10.96;100.00
31346;BME280;21711;49.708;18.568;2023-05-17T09:01:24;97441.69;;;10.80;100.00
31346;BME280;21711;49.708;18.568;2023-05-17T09:03:54;97440.81;;;10.95;100.00
31346;BME280;21711;49.708;18.568;2023-05-17T09:06:22;97438.72;;;10.92;100.00
31346;BME280;21711;49.708;18.568;2023-05-17T09:08:52;97441.63;;;10.90;100.00
31346;BME280;21711;49.708;18.568;2023-05-17T09:11:25;97446.41;;;10.94;100.00
31346;BME280;21711;49.708;18.568;2023-05-17T09:14:04;97443.47;;;10.90;100.00
31346;BME280;21711;49.708;18.568;2023-05-17T09:16:34;97449.25;;;11.08;100.00
31346;BME280;21711;49.708;18.568;2023-05-17T09:19:04;97452.66;;;11.18;100.00
31346;BME280;21711;49.708;18.568;2023-05-17T09:21:32;97448.56;;;11.42;100.00
31346;BME280;21711;49.708;18.568;2023-05-17T09:24:00;97454.66;;;11.42;100.00
31346;BME280;21711;49.708;18.568;2023-05-17T09:26:41;97450.53;;;11.15;100.00
31346;BME280;21711;49.708;18.568;2023-05-17T09:29:10;97451.09;;;11.12;100.00
31346;BME280;21711;49.708;18.568;2023-05-17T09:31:39;97450.66;;;10.84;100.00
31346;BME280;21711;49.708;18.568;2023-05-17T09:34:08;97459.13;;;10.81;100.00
31346;BME280;21711;49.708;18.568;2023-05-17T09:36:37;97465.47;;;10.80;100.00
31346;BME280;21711;49.708;18.568;2023-05-17T09:39:06;97473.19;;;10.61;100.00
31346;BME280;21711;49.708;18.568;2023-05-17T09:41:45;97471.06;;;10.68;100.00
31346;BME280;21711;49.708;18.568;2023-05-17T09:44:17;97478.22;;;10.62;100.00
31346;BME280;21711;49.708;18.568;2023-05-17T09:46:46;97478.94;;;10.89;100.00
31346;BME280;21711;49.708;18.568;2023-05-17T09:49:15;97475.00;;;10.76;100.00
31346;BME280;21711;49.708;18.568;2023-05-17T09:51:47;97484.00;;;10.75;100.00
31346;BME280;21711;49.708;18.568;2023-05-17T09:54:14;97490.59;;;10.88;100.00
31346;BME280;21711;49.708;18.568;2023-05-17T09:56:44;97488.78;;;10.62;100.00
31346;BME280;21711;49.708;18.568;2023-05-17T09:59:19;97493.03;;;10.48;100.00
31346;BME280;21711;49.708;18.568;2023-05-17T10:01:48;97504.66;;;10.31;100.00
31346;BME280;21711;49.708;18.568;2023-05-17T10:04:17;97504.09;;;10.39;100.00
31346;BME280;21711;49.708;18.568;2023-05-17T10:06:50;97500.13;;;10.42;100.00
31346;BME280;21711;49.708;18.568;2023-05-17T10:09:21;97496.19;;;10.45;100.00
31346;BME280;21711;49.708;18.568;2023-05-17T10:11:51;97487.72;;;10.37;100.00
31346;BME280;21711;49.708;18.568;2023-05-17T10:14:34;97497.75;;;10.35;100.00
31346;BME280;21711;49.708;18.568;2023-05-17T10:17:02;97510.22;;;10.30;100.00
31346;BME280;21711;49.708;18.568;2023-05-17T10:19:30;97502.53;;;10.12;100.00
31346;BME280;21711;49.708;18.568;2023-05-17T10:21:58;97505.44;;;10.26;100.00
31346;BME280;21711;49.708;18.568;2023-05-17T10:24:50;97502.53;;;10.18;100.00
31346;BME280;21711;49.708;18.568;2023-05-17T10:27:18;97507.81;;;10.28;100.00
31346;BME280;21711;49.708;18.568;2023-05-17T10:29:47;97511.50;;;10.11;100.00
31346;BME280;21711;49.708;18.568;2023-05-17T10:32:18;97518.34;;;10.07;100.00
31346;BME280;21711;49.708;18.568;2023-05-17T10:34:49;97518.66;;;10.11;100.00
31346;BME280;21711;49.708;18.568;2023-05-17T10:37:32;97529.22;;;10.16;100.00
31346;BME280;21711;49.708;18.568;2023-05-17T10:40:00;97535.56;;;10.41;100.00
31346;BME280;21711;49.708;18.568;2023-05-17T10:42:30;97526.09;;;10.50;100.00
31346;BME280;21711;49.708;18.568;2023-05-17T10:45:00;97526.06;;;10.40;100.00
31346;BME280;21711;49.708;18.568;2023-05-17T10:47:32;97526.63;;;10.58;100.00
31346;BME280;21711;49.708;18.568;2023-05-17T10:49:59;97527.91;;;10.34;100.00
31346;BME280;21711;49.708;18.568;2023-05-17T10:52:30;97527.66;;;10.51;100.00
31346;BME280;21711;49.708;18.568;2023-05-17T10:54:58;97525.25;;;10.39;100.00
31346;BME280;21711;49.708;18.568;2023-05-17T10:57:36;97530.28;;;10.25;100.00
31346;BME280;21711;49.708;18.568;2023-05-17T11:00:20;97532.94;;;10.20;100.00
31346;BME280;21711;49.708;18.568;2023-05-17T11:06:16;97534.53;;;10.47;100.00
31346;BME280;21711;49.708;18.568;2023-05-17T11:09:27;97533.69;;;10.05;100.00
31346;BME280;21711;49.708;18.568;2023-05-17T11:12:07;97524.47;;;10.29;100.00
31346;BME280;21711;49.708;18.568;2023-05-17T11:17:19;97540.28;;;9.97;100.00
31346;BME280;21711;49.708;18.568;2023-05-17T11:22:25;97541.88;;;10.14;100.00
31346;BME280;21711;49.708;18.568;2023-05-17T11:24:56;97537.16;;;10.26;100.00
31346;BME280;21711;49.708;18.568;2023-05-17T11:27:23;97549.53;;;10.00;100.00
31346;BME280;21711;49.708;18.568;2023-05-17T11:29:55;97544.81;;;10.12;100.00
31346;BME280;21711;49.708;18.568;2023-05-17T11:32:31;97544.03;;;10.27;100.00
31346;BME280;21711;49.708;18.568;2023-05-17T11:35:00;97549.31;;;10.33;100.00
31346;BME280;21711;49.708;18.568;2023-05-17T11:37:29;97553.53;;;10.29;100.00
31346;BME280;21711;49.708;18.568;2023-05-17T11:40:05;97561.19;;;10.40;100.00
31346;BME280;21711;49.708;18.568;2023-05-17T11:42:34;97557.25;;;10.33;100.00
31346;BME280;21711;49.708;18.568;2023-05-17T11:45:04;97561.19;;;10.04;100.00
31346;BME280;21711;49.708;18.568;2023-05-17T11:47:32;97565.69;;;10.19;100.00
31346;BME280;21711;49.708;18.568;2023-05-17T11:50:06;97566.72;;;9.97;100.00
31346;BME280;21711;49.708;18.568;2023-05-17T11:52:34;97568.84;;;10.00;100.00
31346;BME280;21711;49.708;18.568;2023-05-17T11:55:02;97569.63;;;10.06;100.00
31346;BME280;21711;49.708;18.568;2023-05-17T11:57:31;97572.56;;;10.15;100.00
31346;BME280;21711;49.708;18.568;2023-05-17T12:00:03;97578.63;;;10.16;100.00
31346;BME280;21711;49.708;18.568;2023-05-17T12:02:40;97583.06;;;9.94;100.00
31346;BME280;21711;49.708;18.568;2023-05-17T12:05:08;97586.03;;;10.08;100.00
31346;BME280;21711;49.708;18.568;2023-05-17T12:07:35;97591.59;;;10.22;100.00
31346;BME280;21711;49.708;18.568;2023-05-17T12:10:03;97589.47;;;10.19;100.00
31346;BME280;21711;49.708;18.568;2023-05-17T12:12:32;97606.13;;;10.20;100.00
31346;BME280;21711;49.708;18.568;2023-05-17T12:15:00;97612.75;;;10.22;100.00
31346;BME280;21711;49.708;18.568;2023-05-17T12:17:36;97612.50;;;10.39;100.00
31346;BME280;21711;49.708;18.568;2023-05-17T12:20:08;97611.72;;;10.34;100.00
31346;BME280;21711;49.708;18.568;2023-05-17T12:22:55;97617.09;;;9.75;100.00
31346;BME280;21711;49.708;18.568;2023-05-17T12:25:23;97606.59;;;10.01;100.00
31346;BME280;21711;49.708;18.568;2023-05-17T12:28:15;97614.03;;;10.04;100.00
31346;BME280;21711;49.708;18.568;2023-05-17T12:30:55;97623.78;;;10.04;100.00
31346;BME280;21711;49.708;18.568;2023-05-17T12:33:24;97620.69;;;10.27;100.00
31346;BME280;21711;49.708;18.568;2023-05-17T12:35:53;97623.56;;;10.26;100.00
31346;BME280;21711;49.708;18.568;2023-05-17T12:38:20;97625.19;;;10.32;100.00
31346;BME280;21711;49.708;18.568;2023-05-17T12:40:48;97621.72;;;10.16;100.00
31346;BME280;21711;49.708;18.568;2023-05-17T12:43:16;97625.38;;;10.05;100.00
31346;BME280;21711;49.708;18.568;2023-05-17T12:45:46;97624.84;;;9.97;100.00
31346;BME280;21711;49.708;18.568;2023-05-17T12:48:14;97623.19;;;9.86;100.00
31346;BME280;21711;49.708;18.568;2023-05-17T12:50:42;97627.94;;;9.79;100.00
31346;BME280;21711;49.708;18.568;2023-05-17T12:53:12;97626.38;;;9.88;100.00
31346;BME280;21711;49.708;18.568;2023-05-17T12:55:39;97632.78;;;10.03;100.00
31346;BME280;21711;49.708;18.568;2023-05-17T12:58:07;97632.78;;;10.13;100.00
31346;BME280;21711;49.708;18.568;2023-05-17T13:00:34;97641.53;;;10.19;100.00
31346;BME280;21711;49.708;18.568;2023-05-17T13:03:09;97633.88;;;10.27;100.00
31346;BME280;21711;49.708;18.568;2023-05-17T13:05:37;97633.88;;;10.17;100.00
31346;BME280;21711;49.708;18.568;2023-05-17T13:08:19;97631.47;;;10.10;100.00
31346;BME280;21711;49.708;18.568;2023-05-17T13:10:47;97627.22;;;10.04;100.00
31346;BME280;21711;49.708;18.568;2023-05-17T13:13:18;97629.53;;;9.85;100.00